Time;durP1;ratioP1;P1;durP2;ratioP2;P2;SDS_P1;SDS_P2;PMS_P1;PMS_P2;Temp;Humidity;BMP_temperature;BMP_pressure;BME280_temperature;BME280_humidity;BME280_pressure;Samples;Min_cycle;Max_cycle;Signal;HPM_P1;HPM_P2
2023/10/23 00:01:08;;;;;;;;;;;11.60;85.30;;;;;;5108614;28;19908;-72
2023/10/23 00:03:34;;;;;;;;;;;11.60;85.20;;;;;;5107684;28;19957;-72
2023/10/23 00:05:59;;;;;;;;;;;11.60;85.20;;;;;;5108744;28;20291;-73
2023/10/23 00:08:25;;;;;;;;;;;11.50;85.30;;;;;;5108645;28;20294;-72
2023/10/23 00:10:50;;;;;;;;;;;11.40;85.30;;;;;;5108585;28;19968;-72
2023/10/23 00:13:16;;;;;;;;;;;11.40;85.40;;;;;;5108415;28;19940;-72
2023/10/23 00:15:42;;;;;;;;;;;11.40;85.60;;;;;;5108624;28;20333;-72
2023/10/23 00:18:08;;;;;;;;;;;11.50;85.70;;;;;;5108507;28;19912;-73
2023/10/23 00:20:33;;;;;;;;;;;11.50;86.10;;;;;;5090324;28;19916;-72
2023/10/23 00:22:59;;;;;;;;;;;11.60;85.60;;;;;;5108437;28;19947;-72
2023/10/23 00:25:24;;;;;;;;;;;11.60;85.60;;;;;;5108458;28;19919;-72
2023/10/23 00:27:50;;;;;;;;;;;11.60;85.60;;;;;;5090261;28;19911;-73
2023/10/23 00:30:15;;;;;;;;;;;11.70;85.50;;;;;;5108290;28;19933;-72
2023/10/23 00:32:41;;;;;;;;;;;11.80;85.40;;;;;;5090039;28;19922;-73
2023/10/23 00:35:07;;;;;;;;;;;11.70;85.20;;;;;;5108298;28;20375;-73
2023/10/23 00:37:34;;;;;;;;;;;11.80;85.20;;;;;;5089847;28;19930;-73
2023/10/23 00:39:59;;;;;;;;;;;11.70;85.10;;;;;;5108263;28;19914;-72
2023/10/23 00:42:25;;;;;;;;;;;11.70;85.70;;;;;;5089917;28;19916;-72
2023/10/23 00:44:50;;;;;;;;;;;11.70;85.30;;;;;;5108287;28;19907;-72
2023/10/23 00:47:21;;;;;;;;;;;11.70;85.30;;;;;;5073031;28;19939;-73
2023/10/23 00:49:46;;;;;;;;;;;11.70;85.30;;;;;;5108317;28;19919;-72
2023/10/23 00:52:12;;;;;;;;;;;11.70;85.30;;;;;;5108188;28;19912;-73
2023/10/23 00:54:38;;;;;;;;;;;11.70;85.40;;;;;;5089611;28;20007;-72
2023/10/23 00:57:04;;;;;;;;;;;11.70;85.50;;;;;;5107953;28;19912;-73
2023/10/23 00:59:30;;;;;;;;;;;11.80;85.60;;;;;;5089852;28;19916;-73
2023/10/23 01:01:56;;;;;;;;;;;11.80;85.60;;;;;;5108081;28;20272;-72
2023/10/23 01:04:22;;;;;;;;;;;11.80;85.70;;;;;;5107915;28;19949;-72
2023/10/23 01:06:50;;;;;;;;;;;11.90;85.80;;;;;;5108060;28;20351;-72
2023/10/23 01:09:16;;;;;;;;;;;11.90;85.70;;;;;;5108016;28;19990;-73
2023/10/23 01:11:41;;;;;;;;;;;12.00;85.80;;;;;;5107868;28;19916;-73
2023/10/23 01:14:07;;;;;;;;;;;12.10;86.30;;;;;;5109626;28;19965;-73
2023/10/23 01:16:32;;;;;;;;;;;12.10;85.60;;;;;;5093556;28;19947;-72
2023/10/23 01:18:58;;;;;;;;;;;12.20;85.60;;;;;;5111826;28;19918;-72
2023/10/23 01:21:23;;;;;;;;;;;12.20;85.60;;;;;;5111673;28;20005;-73
2023/10/23 01:23:50;;;;;;;;;;;12.30;85.70;;;;;;5111705;28;20006;-73
2023/10/23 01:26:16;;;;;;;;;;;12.30;85.60;;;;;;5111702;28;19907;-73
2023/10/23 01:28:41;;;;;;;;;;;12.30;85.60;;;;;;5111663;28;20260;-73
2023/10/23 01:31:07;;;;;;;;;;;12.40;85.60;;;;;;5111644;28;19927;-72
2023/10/23 01:33:33;;;;;;;;;;;12.40;85.60;;;;;;5111405;28;19923;-72
2023/10/23 01:35:59;;;;;;;;;;;12.40;85.60;;;;;;5111157;28;20392;-72
2023/10/23 01:38:25;;;;;;;;;;;12.40;85.60;;;;;;5093288;28;19915;-73
2023/10/23 01:40:50;;;;;;;;;;;12.40;85.60;;;;;;5111496;28;19938;-73
2023/10/23 01:43:16;;;;;;;;;;;12.40;85.50;;;;;;5092910;28;19912;-73
2023/10/23 01:45:41;;;;;;;;;;;12.40;85.50;;;;;;5111321;28;19985;-72
2023/10/23 01:48:07;;;;;;;;;;;12.40;85.60;;;;;;5111327;28;19938;-72
2023/10/23 01:50:32;;;;;;;;;;;12.40;85.70;;;;;;5111192;28;19963;-73
2023/10/23 01:52:58;;;;;;;;;;;12.40;85.60;;;;;;5111209;28;19907;-72
2023/10/23 01:55:23;;;;;;;;;;;12.40;85.50;;;;;;5110872;28;19916;-72
2023/10/23 01:57:49;;;;;;;;;;;12.40;85.50;;;;;;5111189;28;19915;-72
2023/10/23 02:00:14;;;;;;;;;;;12.40;85.40;;;;;;5111341;28;19938;-72
2023/10/23 02:02:40;;;;;;;;;;;12.30;85.40;;;;;;5092979;28;20363;-73
2023/10/23 02:05:06;;;;;;;;;;;12.30;85.40;;;;;;5110855;28;20021;-72
2023/10/23 02:07:31;;;;;;;;;;;12.30;85.30;;;;;;5092649;28;19916;-72
2023/10/23 02:09:57;;;;;;;;;;;12.20;85.30;;;;;;5092830;28;20374;-73
2023/10/23 02:12:23;;;;;;;;;;;12.20;85.30;;;;;;5110771;28;19915;-72
2023/10/23 02:14:51;;;;;;;;;;;12.10;85.30;;;;;;5110726;28;19956;-73
2023/10/23 02:17:17;;;;;;;;;;;12.10;85.30;;;;;;5110714;28;19916;-72
2023/10/23 02:19:43;;;;;;;;;;;12.10;85.40;;;;;;5092494;28;19918;-72
2023/10/23 02:22:08;;;;;;;;;;;12.10;85.50;;;;;;5110636;28;19918;-72
2023/10/23 02:24:34;;;;;;;;;;;12.10;85.50;;;;;;5110310;28;19916;-73
2023/10/23 02:26:59;;;;;;;;;;;12.20;85.60;;;;;;5110064;28;19947;-73
2023/10/23 02:29:25;;;;;;;;;;;12.20;85.60;;;;;;5110493;28;19912;-72
2023/10/23 02:31:50;;;;;;;;;;;12.20;85.60;;;;;;5110431;28;19918;-72
2023/10/23 02:34:16;;;;;;;;;;;12.30;85.70;;;;;;5110312;28;19967;-72
2023/10/23 02:36:42;;;;;;;;;;;12.30;85.80;;;;;;5110417;28;20433;-72
2023/10/23 02:39:07;;;;;;;;;;;12.40;85.80;;;;;;5110124;28;19929;-73
2023/10/23 02:41:33;;;;;;;;;;;12.40;85.80;;;;;;5092000;28;20367;-72
2023/10/23 02:43:58;;;;;;;;;;;12.50;85.80;;;;;;5091814;28;20367;-72
2023/10/23 02:46:24;;;;;;;;;;;12.50;85.70;;;;;;5091979;28;20006;-73
2023/10/23 02:48:50;;;;;;;;;;;12.60;85.70;;;;;;5109997;28;19911;-72
2023/10/23 02:51:19;;;;;;;;;;;12.50;85.70;;;;;;5110169;28;19915;-73
2023/10/23 02:53:44;;;;;;;;;;;12.50;85.70;;;;;;5109887;28;19908;-72
2023/10/23 02:56:10;;;;;;;;;;;12.60;86.40;;;;;;5109755;28;19916;-72
2023/10/23 02:58:36;;;;;;;;;;;12.60;86.00;;;;;;5110048;28;19912;-72
2023/10/23 03:01:02;;;;;;;;;;;12.70;86.00;;;;;;5109771;28;20401;-73
2023/10/23 03:03:27;;;;;;;;;;;12.80;85.90;;;;;;5109515;28;19928;-72
2023/10/23 03:05:53;;;;;;;;;;;12.80;85.90;;;;;;5091644;28;19916;-72
2023/10/23 03:08:18;;;;;;;;;;;12.80;85.80;;;;;;5109649;28;19912;-72
2023/10/23 03:10:44;;;;;;;;;;;12.80;85.80;;;;;;5109739;28;19943;-73
2023/10/23 03:13:10;;;;;;;;;;;12.70;85.80;;;;;;5109576;28;19915;-73
2023/10/23 03:15:36;;;;;;;;;;;12.70;85.80;;;;;;5109544;28;19916;-73
2023/10/23 03:18:03;;;;;;;;;;;12.70;85.90;;;;;;5109525;28;20275;-73
2023/10/23 03:20:29;;;;;;;;;;;12.60;85.90;;;;;;5109498;28;19915;-72
2023/10/23 03:22:55;;;;;;;;;;;12.60;85.90;;;;;;5109222;28;20015;-72
2023/10/23 03:25:20;;;;;;;;;;;12.60;86.00;;;;;;5109442;28;19958;-73
2023/10/23 03:27:46;;;;;;;;;;;12.60;86.00;;;;;;5109287;28;19919;-72
2023/10/23 03:30:11;;;;;;;;;;;12.60;86.00;;;;;;5109373;28;19908;-72
2023/10/23 03:32:37;;;;;;;;;;;12.60;86.10;;;;;;5109083;28;20364;-72
2023/10/23 03:35:03;;;;;;;;;;;12.60;86.10;;;;;;5109166;28;19958;-72
2023/10/23 03:37:28;;;;;;;;;;;12.60;86.10;;;;;;5109106;28;19919;-73
2023/10/23 03:39:54;;;;;;;;;;;12.60;86.10;;;;;;5109457;28;20385;-73
2023/10/23 03:42:20;;;;;;;;;;;12.70;86.10;;;;;;5090874;28;20012;-73
2023/10/23 03:44:45;;;;;;;;;;;12.70;86.00;;;;;;5109025;28;19912;-73
2023/10/23 03:47:11;;;;;;;;;;;12.70;86.00;;;;;;5109251;28;20420;-73
2023/10/23 03:49:36;;;;;;;;;;;12.70;85.90;;;;;;5108958;28;19936;-73
2023/10/23 03:52:02;;;;;;;;;;;12.60;85.80;;;;;;5108872;28;19919;-73
2023/10/23 03:54:27;;;;;;;;;;;12.60;85.80;;;;;;5073455;28;19923;-72
2023/10/23 03:56:53;;;;;;;;;;;12.50;85.90;;;;;;5108683;28;19998;-72
2023/10/23 03:59:18;;;;;;;;;;;12.50;86.00;;;;;;5108546;28;19912;-73
2023/10/23 04:01:44;;;;;;;;;;;12.50;86.10;;;;;;5108455;28;20515;-73
2023/10/23 04:04:10;;;;;;;;;;;12.50;86.20;;;;;;5108513;28;19924;-72
2023/10/23 04:06:38;;;;;;;;;;;12.60;86.30;;;;;;5108280;28;21734;-73
2023/10/23 04:09:04;;;;;;;;;;;12.70;86.20;;;;;;5108573;28;19924;-72
2023/10/23 04:11:29;;;;;;;;;;;12.70;86.20;;;;;;5090322;28;20283;-73
2023/10/23 04:13:55;;;;;;;;;;;12.70;86.10;;;;;;5108625;28;19934;-73
2023/10/23 04:16:21;;;;;;;;;;;12.80;86.10;;;;;;5108452;28;19916;-72
2023/10/23 04:18:46;;;;;;;;;;;12.80;86.10;;;;;;5108559;28;19921;-72
2023/10/23 04:21:12;;;;;;;;;;;12.80;86.20;;;;;;5108405;28;19916;-72
2023/10/23 04:23:39;;;;;;;;;;;12.80;86.20;;;;;;5108404;28;20375;-72
2023/10/23 04:26:07;;;;;;;;;;;12.80;86.30;;;;;;5108448;28;19915;-72
2023/10/23 04:28:34;;;;;;;;;;;12.90;86.30;;;;;;5108363;28;19912;-72
2023/10/23 04:30:59;;;;;;;;;;;12.90;86.20;;;;;;5090027;28;19908;-72
2023/10/23 04:33:25;;;;;;;;;;;13.00;86.30;;;;;;5108197;28;19977;-72
2023/10/23 04:35:52;;;;;;;;;;;13.00;86.20;;;;;;5108267;28;19949;-72
2023/10/23 04:38:17;;;;;;;;;;;12.90;86.00;;;;;;5108174;28;19911;-72
2023/10/23 04:40:44;;;;;;;;;;;12.90;86.10;;;;;;5108298;28;19916;-72
2023/10/23 04:43:10;;;;;;;;;;;12.80;86.10;;;;;;5108237;28;19995;-72
2023/10/23 04:45:36;;;;;;;;;;;12.80;86.20;;;;;;5108121;28;19912;-72
2023/10/23 04:48:02;;;;;;;;;;;12.80;86.20;;;;;;5090119;28;20252;-72
2023/10/23 04:50:30;;;;;;;;;;;12.80;86.30;;;;;;5094034;28;19915;-72
2023/10/23 04:52:55;;;;;;;;;;;12.70;86.20;;;;;;5093918;28;20012;-72
2023/10/23 04:55:21;;;;;;;;;;;12.70;86.20;;;;;;5112137;28;19958;-72
2023/10/23 04:57:47;;;;;;;;;;;12.70;86.30;;;;;;5112164;28;19911;-72
2023/10/23 05:00:13;;;;;;;;;;;12.70;86.30;;;;;;5112238;28;19916;-72
2023/10/23 05:02:39;;;;;;;;;;;12.70;86.30;;;;;;5093943;28;20165;-72
2023/10/23 05:05:05;;;;;;;;;;;12.70;86.30;;;;;;5112045;28;19932;-72
2023/10/23 05:07:31;;;;;;;;;;;12.70;86.30;;;;;;5093638;28;19912;-72
2023/10/23 05:09:56;;;;;;;;;;;12.80;86.30;;;;;;5112129;28;19946;-72
2023/10/23 05:12:22;;;;;;;;;;;12.80;86.20;;;;;;5093755;28;19912;-72
2023/10/23 05:14:47;;;;;;;;;;;12.80;86.20;;;;;;5093586;28;19920;-72
2023/10/23 05:17:15;;;;;;;;;;;12.80;86.20;;;;;;5111702;28;19920;-72
2023/10/23 05:19:41;;;;;;;;;;;12.80;86.20;;;;;;5111833;28;19916;-71
2023/10/23 05:22:06;;;;;;;;;;;12.80;86.20;;;;;;5093420;28;19920;-72
2023/10/23 05:24:32;;;;;;;;;;;12.80;86.20;;;;;;5111674;28;19951;-72
2023/10/23 05:26:57;;;;;;;;;;;12.80;86.10;;;;;;5093172;28;19972;-72
2023/10/23 05:29:23;;;;;;;;;;;12.80;86.10;;;;;;5093148;28;19912;-72
2023/10/23 05:31:48;;;;;;;;;;;12.70;86.10;;;;;;5111384;28;19923;-72
2023/10/23 05:34:14;;;;;;;;;;;12.70;86.20;;;;;;5111411;28;19911;-72
2023/10/23 05:36:40;;;;;;;;;;;12.60;86.20;;;;;;5111297;28;19957;-71
2023/10/23 05:39:06;;;;;;;;;;;12.60;86.20;;;;;;5111211;28;20368;-72
2023/10/23 05:41:31;;;;;;;;;;;12.60;86.20;;;;;;5110985;28;19912;-72
2023/10/23 05:43:57;;;;;;;;;;;12.60;86.20;;;;;;5092618;28;20269;-72
2023/10/23 05:46:22;;;;;;;;;;;12.60;86.30;;;;;;5076083;28;20007;-72
2023/10/23 05:48:48;;;;;;;;;;;12.60;86.20;;;;;;5092827;28;20287;-72
2023/10/23 05:51:14;;;;;;;;;;;12.60;86.20;;;;;;5111076;28;19978;-72
2023/10/23 05:53:40;;;;;;;;;;;12.60;86.20;;;;;;5111122;28;19939;-73
2023/10/23 05:56:06;;;;;;;;;;;12.50;86.10;;;;;;5110712;28;20394;-72
2023/10/23 05:58:32;;;;;;;;;;;12.50;86.10;;;;;;5110949;28;19914;-72
2023/10/23 06:01:03;;;;;;;;;;;12.50;86.20;;;;;;5109637;28;19939;-72
2023/10/23 06:03:29;;;;;;;;;;;12.50;86.30;;;;;;5110585;28;19931;-72
2023/10/23 06:05:54;;;;;;;;;;;12.40;86.30;;;;;;5092545;28;19912;-72
2023/10/23 06:08:20;;;;;;;;;;;12.40;86.30;;;;;;5110881;28;19923;-72
2023/10/23 06:10:45;;;;;;;;;;;12.50;86.40;;;;;;5092170;28;19917;-72
2023/10/23 06:13:14;;;;;;;;;;;12.50;86.40;;;;;;5110699;28;19990;-72
2023/10/23 06:15:39;;;;;;;;;;;12.50;86.40;;;;;;5110612;28;19938;-72
2023/10/23 06:18:05;;;;;;;;;;;12.60;86.40;;;;;;5110481;28;19998;-72
2023/10/23 06:20:32;;;;;;;;;;;12.60;86.40;;;;;;5092253;28;20228;-72
2023/10/23 06:22:58;;;;;;;;;;;12.60;86.40;;;;;;5110558;28;19915;-72
2023/10/23 06:25:23;;;;;;;;;;;12.60;86.30;;;;;;5110463;28;19916;-72
2023/10/23 06:27:49;;;;;;;;;;;12.60;86.20;;;;;;5110015;28;19964;-72
2023/10/23 06:30:15;;;;;;;;;;;12.60;86.20;;;;;;5092111;28;19919;-72
2023/10/23 06:32:40;;;;;;;;;;;12.50;86.30;;;;;;5110156;28;19911;-72
2023/10/23 06:35:06;;;;;;;;;;;12.60;86.40;;;;;;5091604;28;20341;-72
2023/10/23 06:37:34;;;;;;;;;;;12.50;86.40;;;;;;5111402;28;19912;-72
2023/10/23 06:40:00;;;;;;;;;;;12.50;86.40;;;;;;5109720;28;19935;-72
2023/10/23 06:42:26;;;;;;;;;;;12.60;86.50;;;;;;5109639;28;20376;-72
2023/10/23 06:44:51;;;;;;;;;;;12.60;86.50;;;;;;5109859;28;20245;-72
2023/10/23 06:47:17;;;;;;;;;;;12.60;86.40;;;;;;5091841;28;19927;-71
2023/10/23 06:49:44;;;;;;;;;;;12.60;86.40;;;;;;5109890;28;19907;-72
2023/10/23 06:52:09;;;;;;;;;;;12.60;86.30;;;;;;5109688;28;20086;-72
2023/10/23 06:54:35;;;;;;;;;;;12.60;86.40;;;;;;5109884;28;20332;-72
2023/10/23 06:57:06;;;;;;;;;;;12.60;86.40;;;;;;5109836;28;20283;-72
2023/10/23 06:59:31;;;;;;;;;;;12.60;86.40;;;;;;5109070;28;19926;-73
2023/10/23 07:01:57;;;;;;;;;;;12.60;86.50;;;;;;5109183;28;20010;-72
2023/10/23 07:04:22;;;;;;;;;;;12.60;86.40;;;;;;5091150;28;19924;-72
2023/10/23 07:06:48;;;;;;;;;;;12.60;86.40;;;;;;5109450;28;19907;-72
2023/10/23 07:09:14;;;;;;;;;;;12.60;86.40;;;;;;5109318;28;19908;-72
2023/10/23 07:11:39;;;;;;;;;;;12.60;86.50;;;;;;5109120;28;20356;-72
2023/10/23 07:14:05;;;;;;;;;;;12.70;86.50;;;;;;5109207;28;19923;-72
2023/10/23 07:16:30;;;;;;;;;;;12.70;86.50;;;;;;5109151;28;19929;-72
2023/10/23 07:18:56;;;;;;;;;;;12.70;86.40;;;;;;5109184;28;20007;-72
2023/10/23 07:21:23;;;;;;;;;;;12.70;86.40;;;;;;5090982;28;20380;-72
2023/10/23 07:23:49;;;;;;;;;;;12.70;86.40;;;;;;5109406;28;20328;-73
2023/10/23 07:26:15;;;;;;;;;;;12.70;86.40;;;;;;5108930;28;19965;-72
2023/10/23 07:28:41;;;;;;;;;;;12.70;86.50;;;;;;5109138;28;19956;-72
2023/10/23 07:31:10;;;;;;;;;;;12.70;86.50;;;;;;5108911;28;19972;-72
2023/10/23 07:33:36;;;;;;;;;;;12.70;86.50;;;;;;5108877;28;19914;-71
2023/10/23 07:36:03;;;;;;;;;;;12.70;86.50;;;;;;5108694;28;19915;-72
2023/10/23 07:38:29;;;;;;;;;;;12.70;86.60;;;;;;5108900;28;20002;-72
2023/10/23 07:40:54;;;;;;;;;;;12.80;86.70;;;;;;5090491;28;19912;-71
2023/10/23 07:43:20;;;;;;;;;;;12.80;86.70;;;;;;5108588;28;20011;-72
2023/10/23 07:45:45;;;;;;;;;;;12.80;86.70;;;;;;5108575;28;20319;-72
2023/10/23 07:48:11;;;;;;;;;;;12.90;86.70;;;;;;5108439;28;19912;-72
2023/10/23 07:50:36;;;;;;;;;;;12.90;86.70;;;;;;5108377;28;19969;-72
2023/10/23 07:53:02;;;;;;;;;;;13.00;86.70;;;;;;5090147;28;19919;-73
2023/10/23 07:55:28;;;;;;;;;;;13.00;86.70;;;;;;5108284;28;19963;-76
2023/10/23 07:57:53;;;;;;;;;;;13.00;86.90;;;;;;5089777;28;20367;-76
2023/10/23 08:00:19;;;;;;;;;;;13.10;86.70;;;;;;5107662;28;20302;-77
2023/10/23 08:02:44;;;;;;;;;;;13.10;86.70;;;;;;5107631;28;19912;-76
2023/10/23 08:05:10;;;;;;;;;;;13.10;86.70;;;;;;5108078;28;20375;-75
2023/10/23 08:07:35;;;;;;;;;;;13.20;86.80;;;;;;5107029;28;19908;-76
2023/10/23 08:10:02;;;;;;;;;;;13.20;86.80;;;;;;5093651;28;19916;-77
2023/10/23 08:12:27;;;;;;;;;;;13.30;86.90;;;;;;5095076;28;19951;-76
2023/10/23 08:14:53;;;;;;;;;;;13.30;86.90;;;;;;5109165;28;20338;-77
2023/10/23 08:17:18;;;;;;;;;;;13.40;86.90;;;;;;5110132;28;19915;-78
2023/10/23 08:19:44;;;;;;;;;;;13.50;86.90;;;;;;5111316;28;19912;-78
2023/10/23 08:22:10;;;;;;;;;;;13.60;87.00;;;;;;5076568;28;19973;-78
2023/10/23 08:24:35;;;;;;;;;;;13.80;87.10;;;;;;5090951;28;19929;-78
2023/10/23 08:27:01;;;;;;;;;;;13.90;87.10;;;;;;5109923;28;19961;-77
2023/10/23 08:29:28;;;;;;;;;;;14.00;87.10;;;;;;5109743;28;20395;-77
2023/10/23 08:31:53;;;;;;;;;;;14.10;87.00;;;;;;5091143;28;19912;-78
2023/10/23 08:34:21;;;;;;;;;;;14.10;86.90;;;;;;5109923;28;19960;-78
2023/10/23 08:36:49;;;;;;;;;;;14.20;86.90;;;;;;5109302;28;20366;-78
2023/10/23 08:39:15;;;;;;;;;;;14.30;87.40;;;;;;5109527;28;19907;-77
2023/10/23 08:41:40;;;;;;;;;;;14.30;87.00;;;;;;5091036;28;19957;-77
2023/10/23 08:44:06;;;;;;;;;;;14.30;86.90;;;;;;5109791;28;20007;-77
2023/10/23 08:46:33;;;;;;;;;;;14.40;86.90;;;;;;5109163;28;19919;-77
2023/10/23 08:48:59;;;;;;;;;;;14.40;86.90;;;;;;5109360;28;19915;-78
2023/10/23 08:51:25;;;;;;;;;;;14.40;86.90;;;;;;5109255;28;20514;-78
2023/10/23 08:53:55;;;;;;;;;;;14.30;86.90;;;;;;5109068;28;20363;-79
2023/10/23 08:56:21;;;;;;;;;;;14.30;86.90;;;;;;5090689;28;19924;-78
2023/10/23 08:58:53;;;;;;;;;;;14.30;87.00;;;;;;5109273;28;19915;-78
2023/10/23 09:01:19;;;;;;;;;;;14.30;87.00;;;;;;5109420;28;20064;-78
2023/10/23 09:03:46;;;;;;;;;;;14.30;87.10;;;;;;5109685;28;20002;-78
2023/10/23 09:06:15;;;;;;;;;;;14.30;87.10;;;;;;5091133;28;20291;-78
2023/10/23 09:08:41;;;;;;;;;;;14.30;87.10;;;;;;5110419;28;19912;-78
2023/10/23 09:11:07;;;;;;;;;;;14.40;87.10;;;;;;5109338;28;19920;-77
2023/10/23 09:13:33;;;;;;;;;;;14.40;87.20;;;;;;5109487;28;20444;-78
2023/10/23 09:15:58;;;;;;;;;;;14.40;87.20;;;;;;5109217;28;20260;-67
2023/10/23 09:18:24;;;;;;;;;;;14.50;87.20;;;;;;5109288;28;19914;-77
2023/10/23 09:20:50;;;;;;;;;;;14.60;87.20;;;;;;5091466;28;19955;-77
2023/10/23 09:23:15;;;;;;;;;;;14.60;87.20;;;;;;5109226;28;19912;-77
2023/10/23 09:25:41;;;;;;;;;;;14.70;87.20;;;;;;5090894;28;19942;-77
2023/10/23 09:28:10;;;;;;;;;;;14.70;87.20;;;;;;5107265;28;19907;-79
2023/10/23 09:30:36;;;;;;;;;;;14.80;87.20;;;;;;5090531;28;19998;-77
2023/10/23 09:33:02;;;;;;;;;;;14.80;87.20;;;;;;5109474;28;19908;-77
2023/10/23 09:35:28;;;;;;;;;;;14.80;87.10;;;;;;5093539;28;19923;-77
2023/10/23 09:37:55;;;;;;;;;;;14.80;87.20;;;;;;5112979;28;19908;-76
2023/10/23 09:40:21;;;;;;;;;;;14.80;87.20;;;;;;5094166;28;20075;-76
2023/10/23 09:42:47;;;;;;;;;;;14.80;87.20;;;;;;5112245;28;19951;-77
2023/10/23 09:45:15;;;;;;;;;;;14.80;87.20;;;;;;5112984;28;19964;-77
2023/10/23 09:47:41;;;;;;;;;;;14.70;87.20;;;;;;5113146;28;19912;-77
2023/10/23 09:50:07;;;;;;;;;;;14.70;87.20;;;;;;5112816;28;19999;-77
2023/10/23 09:52:34;;;;;;;;;;;14.70;87.20;;;;;;5112591;28;19908;-76
2023/10/23 09:55:03;;;;;;;;;;;14.60;87.30;;;;;;5114025;28;19916;-77
2023/10/23 09:57:39;;;;;;;;;;;14.70;87.40;;;;;;5112783;28;19911;-78
2023/10/23 10:00:12;;;;;;;;;;;14.70;87.50;;;;;;5093988;28;19911;-77
2023/10/23 10:02:39;;;;;;;;;;;14.80;87.50;;;;;;5111506;28;19908;-78
2023/10/23 10:05:07;;;;;;;;;;;14.90;87.40;;;;;;5092042;28;19924;-77
2023/10/23 10:07:59;;;;;;;;;;;14.90;87.40;;;;;;5092460;28;20303;-77
2023/10/23 10:10:25;;;;;;;;;;;15.00;87.40;;;;;;5091204;28;19930;-76
2023/10/23 10:12:51;;;;;;;;;;;15.10;87.60;;;;;;5092311;28;19912;-79
2023/10/23 10:15:17;;;;;;;;;;;15.20;87.50;;;;;;5091790;28;20414;-77
2023/10/23 10:17:43;;;;;;;;;;;15.20;87.40;;;;;;5090330;28;19950;-78
2023/10/23 10:20:09;;;;;;;;;;;15.30;87.50;;;;;;5091653;28;20412;-77
2023/10/23 10:22:36;;;;;;;;;;;15.30;87.40;;;;;;5091239;28;19908;-77
2023/10/23 10:25:04;;;;;;;;;;;15.30;87.30;;;;;;5092039;28;19919;-78
2023/10/23 10:27:30;;;;;;;;;;;15.30;87.30;;;;;;5091392;28;20368;-79
2023/10/23 10:29:55;;;;;;;;;;;15.30;87.80;;;;;;5082102;28;19923;-78
2023/10/23 10:32:23;;;;;;;;;;;15.20;87.30;;;;;;5073248;28;20300;-78
2023/10/23 10:34:52;;;;;;;;;;;15.20;87.40;;;;;;5080500;28;19912;-78
2023/10/23 10:37:20;;;;;;;;;;;15.10;87.30;;;;;;5090763;28;20375;-81
2023/10/23 10:39:46;;;;;;;;;;;15.00;87.40;;;;;;5091620;28;19915;-79
2023/10/23 10:42:22;;;;;;;;;;;14.90;87.50;;;;;;5090284;28;20276;-73
2023/10/23 10:44:55;;;;;;;;;;;14.90;87.50;;;;;;5090483;28;19912;-73
2023/10/23 10:47:21;;;;;;;;;;;14.90;87.50;;;;;;5089987;28;20254;-77
2023/10/23 10:49:47;;;;;;;;;;;14.90;87.60;;;;;;5091198;28;20362;-79
2023/10/23 10:52:30;;;;;;;;;;;14.80;87.50;;;;;;5091257;28;19912;-78
2023/10/23 10:54:56;;;;;;;;;;;14.90;87.60;;;;;;5089560;28;19919;-77
2023/10/23 10:57:22;;;;;;;;;;;14.90;87.60;;;;;;5090878;28;19919;-78
2023/10/23 10:59:53;;;;;;;;;;;15.00;87.60;;;;;;5091386;28;19921;-77
2023/10/23 11:02:19;;;;;;;;;;;15.10;87.70;;;;;;5091014;28;19976;-74
2023/10/23 11:04:45;;;;;;;;;;;15.20;87.50;;;;;;5107833;28;20368;-74
2023/10/23 11:07:10;;;;;;;;;;;15.20;87.50;;;;;;5110584;28;20275;-74
2023/10/23 11:09:36;;;;;;;;;;;15.30;87.40;;;;;;5092324;28;19998;-73
2023/10/23 11:12:02;;;;;;;;;;;15.20;87.20;;;;;;5110901;28;19912;-75
2023/10/23 11:14:27;;;;;;;;;;;15.20;87.10;;;;;;5093330;28;19943;-73
2023/10/23 11:16:53;;;;;;;;;;;15.20;87.20;;;;;;5111019;28;19912;-75
2023/10/23 11:19:18;;;;;;;;;;;15.30;87.30;;;;;;5110893;28;20032;-74
2023/10/23 11:21:44;;;;;;;;;;;15.30;87.40;;;;;;5110878;28;19957;-74
2023/10/23 11:24:09;;;;;;;;;;;15.40;87.50;;;;;;5111081;28;19919;-75
2023/10/23 11:26:35;;;;;;;;;;;15.50;87.70;;;;;;5092891;28;19980;-74
2023/10/23 11:29:01;;;;;;;;;;;15.70;87.80;;;;;;5110679;28;19958;-74
2023/10/23 11:31:26;;;;;;;;;;;15.80;87.70;;;;;;5111143;28;20014;-73
2023/10/23 11:33:55;;;;;;;;;;;15.90;87.60;;;;;;5110497;28;19922;-73
2023/10/23 11:36:21;;;;;;;;;;;16.00;87.50;;;;;;5110686;28;19915;-73
2023/10/23 11:38:47;;;;;;;;;;;16.00;87.50;;;;;;5092495;28;19922;-74
2023/10/23 11:41:12;;;;;;;;;;;16.20;87.60;;;;;;5110867;28;19908;-74
2023/10/23 11:43:38;;;;;;;;;;;16.30;87.80;;;;;;5110895;28;19916;-75
2023/10/23 11:46:07;;;;;;;;;;;16.40;87.70;;;;;;5110599;28;19922;-75
2023/10/23 11:48:32;;;;;;;;;;;16.40;87.50;;;;;;5092716;28;19912;-75
2023/10/23 11:50:59;;;;;;;;;;;16.40;87.50;;;;;;5091857;28;19912;-74
2023/10/23 11:53:26;;;;;;;;;;;16.30;87.50;;;;;;5109338;28;19912;-75
2023/10/23 11:55:51;;;;;;;;;;;16.20;87.50;;;;;;5108994;28;20002;-75
2023/10/23 11:58:27;;;;;;;;;;;16.10;87.50;;;;;;5108761;28;20716;-73
2023/10/23 12:00:52;;;;;;;;;;;16.00;87.40;;;;;;5109581;28;19908;-75
2023/10/23 12:03:18;;;;;;;;;;;16.00;87.60;;;;;;5091953;28;19946;-74
2023/10/23 12:05:44;;;;;;;;;;;15.90;87.50;;;;;;5091091;28;19948;-75
2023/10/23 12:08:10;;;;;;;;;;;15.80;87.10;;;;;;5110053;28;19912;-74
2023/10/23 12:10:38;;;;;;;;;;;15.50;86.80;;;;;;5091493;28;19912;-75
2023/10/23 12:13:03;;;;;;;;;;;15.30;87.10;;;;;;5091265;28;19918;-78
2023/10/23 12:15:29;;;;;;;;;;;15.30;87.50;;;;;;5091071;28;19911;-79
2023/10/23 12:18:02;;;;;;;;;;;15.20;87.50;;;;;;5109177;28;20006;-71
2023/10/23 12:20:29;;;;;;;;;;;15.30;87.50;;;;;;5109623;28;19953;-77
2023/10/23 12:22:55;;;;;;;;;;;15.30;87.40;;;;;;5091511;28;19912;-77
2023/10/23 12:25:21;;;;;;;;;;;15.40;87.50;;;;;;5109959;28;19949;-77
2023/10/23 12:27:47;;;;;;;;;;;15.40;87.40;;;;;;5109799;28;20240;-78
2023/10/23 12:30:14;;;;;;;;;;;15.40;87.20;;;;;;5091592;28;19912;-79
2023/10/23 12:32:40;;;;;;;;;;;15.40;87.10;;;;;;5109947;28;19992;-81
2023/10/23 12:35:06;;;;;;;;;;;15.30;86.80;;;;;;5092079;28;19923;-78
2023/10/23 12:37:32;;;;;;;;;;;15.10;86.70;;;;;;5109942;28;19918;-80
2023/10/23 12:40:00;;;;;;;;;;;14.90;86.90;;;;;;5110016;28;19948;-79
2023/10/23 12:42:26;;;;;;;;;;;14.70;87.00;;;;;;5109811;28;19916;-78
2023/10/23 12:44:52;;;;;;;;;;;14.60;87.30;;;;;;5110206;28;19912;-79
2023/10/23 12:47:18;;;;;;;;;;;14.50;87.50;;;;;;5109485;28;19935;-79
2023/10/23 12:49:44;;;;;;;;;;;14.40;87.60;;;;;;5091613;28;20514;-78
2023/10/23 12:52:10;;;;;;;;;;;14.50;87.80;;;;;;5109633;28;20248;-79
2023/10/23 12:54:36;;;;;;;;;;;14.50;87.80;;;;;;5109895;28;19961;-79
2023/10/23 12:57:03;;;;;;;;;;;14.60;87.80;;;;;;5109940;28;19920;-79
2023/10/23 12:59:29;;;;;;;;;;;14.70;87.80;;;;;;5109867;28;19919;-79
2023/10/23 13:01:55;;;;;;;;;;;14.80;87.80;;;;;;5091487;28;19918;-79
2023/10/23 13:04:21;;;;;;;;;;;14.90;88.20;;;;;;5091408;28;19924;-76
2023/10/23 13:06:47;;;;;;;;;;;15.00;87.70;;;;;;5092471;28;19962;-79
2023/10/23 13:09:15;;;;;;;;;;;15.10;87.50;;;;;;5110311;28;20372;-80
2023/10/23 13:11:41;;;;;;;;;;;15.20;87.40;;;;;;5095039;28;19912;-80
2023/10/23 13:14:06;;;;;;;;;;;15.30;87.40;;;;;;5113714;28;19908;-79
2023/10/23 13:16:32;;;;;;;;;;;15.30;87.20;;;;;;5113436;28;19934;-79
2023/10/23 13:18:57;;;;;;;;;;;15.40;87.30;;;;;;5113413;28;19912;-79
2023/10/23 13:21:23;;;;;;;;;;;15.40;87.30;;;;;;5114015;28;20363;-79
2023/10/23 13:23:48;;;;;;;;;;;15.40;87.30;;;;;;5113304;28;19912;-78
2023/10/23 13:26:14;;;;;;;;;;;15.50;87.30;;;;;;5095139;28;19934;-78
2023/10/23 13:28:40;;;;;;;;;;;15.60;87.30;;;;;;5095100;28;20004;-77
2023/10/23 13:31:05;;;;;;;;;;;15.60;87.30;;;;;;5113035;28;19938;-78
2023/10/23 13:33:31;;;;;;;;;;;15.60;87.30;;;;;;5113059;28;20007;-78
2023/10/23 13:35:56;;;;;;;;;;;15.60;87.30;;;;;;5112780;28;20267;-77
2023/10/23 13:38:22;;;;;;;;;;;15.50;87.20;;;;;;5094617;28;19939;-78
2023/10/23 13:40:47;;;;;;;;;;;15.50;87.30;;;;;;5077355;28;19919;-77
2023/10/23 13:43:13;;;;;;;;;;;15.50;87.30;;;;;;5112778;28;19985;-78
2023/10/23 13:45:38;;;;;;;;;;;15.50;87.30;;;;;;5094497;28;19918;-78
2023/10/23 13:48:04;;;;;;;;;;;15.50;87.30;;;;;;5112932;28;20390;-77
2023/10/23 13:50:32;;;;;;;;;;;15.50;87.40;;;;;;5112215;28;20366;-77
2023/10/23 13:52:57;;;;;;;;;;;15.50;87.30;;;;;;5093509;28;19951;-77
2023/10/23 13:55:23;;;;;;;;;;;15.50;87.30;;;;;;5093674;28;19958;-76
2023/10/23 13:57:49;;;;;;;;;;;15.50;87.30;;;;;;5111744;28;19918;-77
2023/10/23 14:00:14;;;;;;;;;;;15.40;87.30;;;;;;5112803;28;20373;-78
2023/10/23 14:02:40;;;;;;;;;;;15.40;87.30;;;;;;5093392;28;19908;-77
2023/10/23 14:05:06;;;;;;;;;;;15.30;87.20;;;;;;5093894;28;19920;-78
2023/10/23 14:07:31;;;;;;;;;;;15.30;87.30;;;;;;5093863;28;19965;-77
2023/10/23 14:09:57;;;;;;;;;;;15.20;87.40;;;;;;5112254;28;20296;-79